Stony Ridge, Ohio
Current Conditions -  °F | °C
As of 4:53 PM on Saturday 20 Dec 2014 (Local Time) from KTDZ Reporting Station
Overcast Overcast  
Wind Chill: 26°   Ceiling: 2500
Heat Index: 31°   Visibility: 8mi
Dew Point: 22°   Wind: 5mph
Humidity: 69%   Direction: 140°SE
Pressure: 30.28"   Gusts: NA
Location:  41.51°N, 83.51°W
Report Text: KTDZ 202153Z AUTO 14004KT 8SM OVC025 M01/M06 A3028 RMK AO2 SLP259 T10061056 TSNO
Loading
Personal Weather Stations






























Interactive Weather Map New forecast layout! Learn more

10-Day Weather Forecast

Advertisements
Track Severe Weather on mobile